Terminal Aerodrome Forecast
Issued by NWS

Home | Current Version | Previous Version | Text Only | Print | Product List | Glossary On
Versions: 1 2 3 4 5 6 7 8 9 10 11 12 13 14
108
FTUS42 KTAE 161720
TAFABY
TAF
KABY 161720Z 1618/1718 35009KT P6SM BKN035
     FM170000 03011KT P6SM SCT050=

USA.gov is the U.S. government's official web portal to all federal, state and local government web resources and services.